Terminal Aerodrome Forecast
Issued by NWS Sterling, VA

Home | Current Version | Previous Version | Text Only | Print | Product List | Glossary On
Versions: 1 2 3 4 5 6 7 8 9 10 11 12 13 14 15 16 17 18 19 20
862
FTUS41 KLWX 302320
TAFMRB
TAF
KMRB 302320Z 0100/0124 15007KT 5SM -RA BR BKN015 OVC025
     FM010500 15008KT 3SM RA BR BKN008 OVC015
     FM011200 15008KT 5SM -RA BR BKN008 OVC015
     FM011500 15005KT P6SM BKN008 OVC015
     FM011800 13005KT P6SM -SHRA BKN008 OVC015=

USA.gov is the U.S. government's official web portal to all federal, state and local government web resources and services.